Time;durP1;ratioP1;P1;durP2;ratioP2;P2;SDS_P1;SDS_P2;PMS_P1;PMS_P2;Temp;Humidity;BMP_temperature;BMP_pressure;BME280_temperature;BME280_humidity;BME280_pressure;Samples;Min_cycle;Max_cycle;Signal;HPM_P1;HPM_P2
2021/12/19 00:02:32;;;;;;;8.73;4.20;;;;;;;5.61;100.00;102890.00;4875909;29;20205;-79
2021/12/19 00:10:24;;;;;;;10.50;5.18;;;;;;;5.56;100.00;102905.91;4860714;29;20776;-79
2021/12/19 00:12:51;;;;;;;9.75;5.10;;;;;;;5.63;100.00;102886.50;4874958;29;20225;-79
2021/12/19 00:15:16;;;;;;;12.73;5.00;;;;;;;5.61;100.00;102904.19;4875349;29;20625;-80
2021/12/19 00:17:42;;;;;;;12.88;5.53;;;;;;;5.56;100.00;102903.25;4875041;29;20295;-79
2021/12/19 00:20:07;;;;;;;15.18;5.68;;;;;;;5.58;100.00;102905.06;4861330;29;20182;-79
2021/12/19 00:22:33;;;;;;;15.90;5.93;;;;;;;5.58;100.00;102909.47;4861812;29;20257;-79
2021/12/19 00:24:58;;;;;;;14.55;6.40;;;;;;;5.59;100.00;102903.28;4875665;29;20210;-79
2021/12/19 00:27:24;;;;;;;13.75;5.97;;;;;;;5.59;100.00;102916.56;4861443;29;20257;-79
2021/12/19 00:29:49;;;;;;;13.82;6.05;;;;;;;5.56;100.00;102916.53;4875522;29;20174;-79
2021/12/19 00:32:15;;;;;;;16.58;6.13;;;;;;;5.62;100.00;102921.97;4861250;29;20217;-79
2021/12/19 00:34:41;;;;;;;10.98;5.93;;;;;;;5.63;100.00;102917.53;4876637;29;20665;-81
2021/12/19 00:37:06;;;;;;;12.90;6.00;;;;;;;5.69;100.00;102912.31;4877092;29;20186;-81
2021/12/19 00:39:32;;;;;;;15.30;5.78;;;;;;;5.65;100.00;102908.69;4863084;29;20547;-81
2021/12/19 00:41:57;;;;;;;10.90;6.03;;;;;;;5.69;100.00;102905.22;4877084;29;20202;-80
2021/12/19 00:44:24;;;;;;;14.75;6.05;;;;;;;5.62;100.00;102913.06;4863086;29;20178;-80
2021/12/19 00:47:03;;;;;;;17.77;6.18;;;;;;;5.62;100.00;102890.06;4876460;29;20206;-80
2021/12/19 00:49:29;;;;;;;14.30;6.55;;;;;;;5.64;100.00;102883.00;4861180;29;20273;-80
2021/12/19 00:51:55;;;;;;;16.13;5.57;;;;;;;5.66;100.00;102867.03;4861956;29;20197;-80
2021/12/19 00:54:20;;;;;;;15.63;5.10;;;;;;;5.66;100.00;102881.22;4862397;29;20201;-81
2021/12/19 00:56:46;;;;;;;16.50;4.53;;;;;;;5.67;100.00;102880.38;4876227;29;20198;-81
2021/12/19 00:59:12;;;;;;;11.75;4.85;;;;;;;5.71;100.00;102868.03;4863732;29;20651;-80
2021/12/19 01:01:38;;;;;;;12.23;5.22;;;;;;;5.75;100.00;102860.09;4865760;29;20186;-80
2021/12/19 01:04:10;;;;;;;16.40;5.60;;;;;;;5.74;100.00;102863.63;4865801;29;20698;-81
2021/12/19 01:06:41;;;;;;;14.32;4.55;;;;;;;5.75;100.00;102878.72;4865518;29;20177;-80
2021/12/19 01:09:08;;;;;;;13.38;4.35;;;;;;;5.74;100.00;102889.31;4879443;29;20556;-80
2021/12/19 01:11:35;;;;;;;14.50;3.50;;;;;;;5.76;100.00;102883.16;4880050;29;20186;-80
2021/12/19 01:14:01;;;;;;;8.90;2.85;;;;;;;5.78;100.00;102870.78;4880378;29;20181;-80
2021/12/19 01:16:27;;;;;;;8.73;2.92;;;;;;;5.76;100.00;102875.19;4879357;29;20198;-80
2021/12/19 01:18:52;;;;;;;12.85;2.42;;;;;;;5.73;100.00;102882.25;4865474;29;20649;-81
2021/12/19 01:21:18;;;;;;;7.15;1.73;;;;;;;5.81;100.00;102890.31;4865977;29;20253;-80
2021/12/19 01:23:43;;;;;;;5.70;1.35;;;;;;;5.76;100.00;102904.44;4880101;29;20686;-80
2021/12/19 01:26:09;;;;;;;3.97;1.20;;;;;;;5.73;100.00;102893.75;4865825;29;20182;-80
2021/12/19 01:28:35;;;;;;;4.00;1.23;;;;;;;5.76;100.00;102895.56;4866670;29;20217;-80
2021/12/19 01:31:00;;;;;;;3.30;0.95;;;;;;;5.75;100.00;102883.13;4880898;29;20178;-80
2021/12/19 01:33:26;;;;;;;2.60;0.90;;;;;;;5.75;100.00;102880.47;4880746;29;20194;-80
2021/12/19 01:35:52;;;;;;;4.28;1.20;;;;;;;5.73;100.00;102871.59;4865446;29;20568;-80
2021/12/19 01:38:18;;;;;;;4.20;1.23;;;;;;;5.69;100.00;102865.31;4865460;29;20175;-80
2021/12/19 01:40:43;;;;;;;7.05;1.20;;;;;;;5.70;100.00;102887.50;4865502;29;20197;-80
2021/12/19 01:43:09;;;;;;;2.17;1.02;;;;;;;5.65;100.00;102891.84;4865565;29;20288;-80
2021/12/19 01:45:37;;;;;;;2.33;1.00;;;;;;;5.64;100.00;102884.72;4879341;29;20222;-80
2021/12/19 01:48:05;;;;;;;2.45;1.13;;;;;;;5.66;100.00;102859.06;4865029;29;20190;-80
2021/12/19 01:50:33;;;;;;;1.85;1.00;;;;;;;5.61;100.00;102851.00;4878681;29;20186;-79
2021/12/19 01:53:00;;;;;;;4.00;1.10;;;;;;;5.61;100.00;102851.00;4864288;29;20217;-80
2021/12/19 02:03:19;;;;;;;5.18;1.27;;;;;;;5.62;100.00;102852.81;4867130;29;20589;-80
2021/12/19 02:08:32;;;;;;;3.58;1.50;;;;;;;5.69;100.00;102836.06;4849154;29;20363;-80
2021/12/19 02:10:58;;;;;;;3.72;1.45;;;;;;;5.69;100.00;102841.41;4870193;29;20225;-80
2021/12/19 02:13:24;;;;;;;4.10;1.33;;;;;;;5.67;100.00;102845.78;4882107;29;20643;-80
2021/12/19 02:15:50;;;;;;;5.55;1.73;;;;;;;5.69;100.00;102836.06;4866153;29;20738;-80
2021/12/19 02:18:18;;;;;;;6.25;1.60;;;;;;;5.70;100.00;102836.97;4881897;29;20178;-81
2021/12/19 02:20:50;;;;;;;5.18;1.33;;;;;;;5.68;100.00;102836.94;4883218;29;20194;-80
2021/12/19 02:23:21;;;;;;;4.10;1.20;;;;;;;5.68;100.00;102842.25;4851170;29;20212;-81
2021/12/19 02:28:15;;;;;;;2.88;1.00;;;;;;;5.71;100.00;102857.38;4862885;29;20226;-83
2021/12/19 02:30:40;;;;;;;3.50;1.20;;;;;;;5.71;100.00;102858.28;4863253;29;20224;-81
2021/12/19 02:33:13;;;;;;;4.78;1.20;;;;;;;5.73;100.00;102856.53;4847787;29;20178;-81
2021/12/19 02:48:35;;;;;;;7.50;1.95;;;;;;;5.91;100.00;102817.75;4830624;29;20184;-80
2021/12/19 02:51:02;;;;;;;6.15;1.90;;;;;;;5.93;100.00;102806.25;4827166;29;20184;-80
2021/12/19 02:53:29;;;;;;;9.13;2.00;;;;;;;5.98;100.00;102801.91;4810412;29;20351;-80
2021/12/19 02:55:55;;;;;;;8.18;2.25;;;;;;;5.98;100.00;102774.41;4810387;29;20218;-79
2021/12/19 02:58:20;;;;;;;7.63;1.95;;;;;;;5.98;100.00;102787.72;4830598;29;20570;-78
2021/12/19 03:00:46;;;;;;;10.18;2.30;;;;;;;5.99;100.00;102800.13;4849011;29;20751;-80
2021/12/19 03:03:11;;;;;;;8.32;2.38;;;;;;;6.03;100.00;102803.72;4830863;29;20185;-80
2021/12/19 03:05:37;;;;;;;12.10;2.42;;;;;;;6.01;100.00;102811.69;4846688;29;20285;-80
2021/12/19 03:08:03;;;;;;;7.60;2.20;;;;;;;6.01;100.00;102798.38;4863251;29;20193;-80
2021/12/19 03:13:37;;;;;;;9.07;1.60;;;;;;;6.01;100.00;102793.06;4862991;29;20197;-80
2021/12/19 03:18:47;;;;;;;10.48;2.20;;;;;;;6.07;100.00;102797.56;4862117;29;20270;-80
2021/12/19 03:21:16;;;;;;;6.90;2.40;;;;;;;6.07;100.00;102787.81;4845919;29;20640;-80
2021/12/19 03:23:42;;;;;;;7.85;2.00;;;;;;;6.03;100.00;102782.44;4862079;29;20174;-80
2021/12/19 03:26:08;;;;;;;11.90;1.90;;;;;;;6.08;100.00;102778.97;4846296;29;20270;-80
2021/12/19 03:28:34;;;;;;;10.00;1.90;;;;;;;6.13;100.00;102781.69;4862239;29;20859;-80
2021/12/19 03:30:59;;;;;;;8.95;2.13;;;;;;;6.17;99.98;102781.75;4846929;29;20197;-80
2021/12/19 03:33:25;;;;;;;7.70;2.15;;;;;;;6.09;100.00;102775.44;4862916;29;20189;-80
2021/12/19 03:35:51;;;;;;;10.80;2.22;;;;;;;6.10;99.79;102773.66;4846266;29;20209;-80
2021/12/19 03:38:17;;;;;;;7.93;2.22;;;;;;;6.08;99.48;102773.66;4861756;29;20213;-79
2021/12/19 03:40:51;;;;;;;8.93;2.05;;;;;;;6.23;99.61;102774.69;4830693;29;20197;-81
2021/12/19 03:43:23;;;;;;;7.63;1.98;;;;;;;6.21;99.38;102763.13;4855994;29;20338;-80
2021/12/19 03:45:49;;;;;;;14.80;2.20;;;;;;;6.14;99.28;102768.41;4857953;29;20636;-80
2021/12/19 03:48:16;;;;;;;8.43;1.98;;;;;;;6.14;99.55;102773.72;4827482;29;20175;-80
2021/12/19 03:50:46;;;;;;;7.70;1.90;;;;;;;6.14;99.07;102764.84;4843982;29;20282;-80
2021/12/19 03:53:13;;;;;;;6.15;1.80;;;;;;;6.12;99.14;102770.16;4827739;29;20187;-80
2021/12/19 03:55:39;;;;;;;7.18;1.90;;;;;;;6.17;99.50;102751.59;4827868;29;20202;-80
2021/12/19 03:58:05;;;;;;;8.77;2.00;;;;;;;6.26;99.27;102750.78;4828886;29;20193;-80
2021/12/19 04:00:31;;;;;;;10.35;2.22;;;;;;;6.22;99.30;102744.53;4845081;29;20711;-81
2021/12/19 04:03:00;;;;;;;12.43;2.40;;;;;;;6.17;99.49;102739.16;4827464;29;20179;-81
2021/12/19 04:05:27;;;;;;;10.90;2.17;;;;;;;6.25;98.83;102725.91;4828475;29;20602;-81
2021/12/19 04:07:53;;;;;;;9.80;2.30;;;;;;;6.21;99.10;102726.78;4843516;29;20175;-81
2021/12/19 04:10:21;;;;;;;8.77;2.08;;;;;;;6.21;99.42;102717.88;4845134;29;20281;-81
2021/12/19 04:12:47;;;;;;;6.88;2.20;;;;;;;6.21;99.13;102710.81;4828158;29;20266;-81
2021/12/19 04:15:13;;;;;;;9.45;2.00;;;;;;;6.23;99.32;102716.13;4813082;29;20203;-81
2021/12/19 04:17:39;;;;;;;10.65;2.25;;;;;;;6.21;99.22;102715.22;4843946;29;20665;-81
2021/12/19 04:20:05;;;;;;;11.15;2.90;;;;;;;6.18;98.91;102711.66;4827537;29;20213;-81
2021/12/19 04:22:31;;;;;;;13.25;2.30;;;;;;;6.24;99.26;102704.63;4827807;29;20582;-81
2021/12/19 04:24:56;;;;;;;12.25;2.25;;;;;;;6.21;99.19;102686.88;4827613;29;20191;-81
2021/12/19 04:27:22;;;;;;;8.10;2.28;;;;;;;6.22;99.14;102696.63;4826833;29;20175;-80
2021/12/19 04:29:49;;;;;;;7.50;2.00;;;;;;;6.25;98.85;102688.66;4827235;29;20191;-80
2021/12/19 04:32:17;;;;;;;13.45;2.10;;;;;;;6.26;98.89;102687.78;4827731;29;20598;-80
2021/12/19 04:34:42;;;;;;;13.27;2.00;;;;;;;6.27;98.68;102683.34;4826743;29;20274;-79
2021/12/19 04:37:27;;;;;;;11.80;2.38;;;;;;;6.25;98.17;102685.97;4842807;29;20246;-81
2021/12/19 04:40:00;;;;;;;13.13;2.33;;;;;;;6.22;98.19;102693.06;4828459;29;20243;-80
2021/12/19 04:53:21;;;;;;;10.10;2.65;;;;;;;6.24;97.71;102651.38;4826422;29;20274;-81
2021/12/19 04:56:22;;;;;;;10.13;1.92;;;;;;;6.27;97.27;102646.09;4826886;29;20286;-80
2021/12/19 05:15:09;;;;;;;10.93;2.70;;;;;;;6.24;97.53;102659.38;4860918;29;20206;-81
2021/12/19 05:17:35;;;;;;;18.67;2.33;;;;;;;6.25;97.94;102645.19;4859496;29;20193;-81
2021/12/19 05:20:14;;;;;;;10.77;1.92;;;;;;;6.24;97.35;102646.06;4844769;29;20337;-81
2021/12/19 05:22:47;;;;;;;9.63;2.28;;;;;;;6.27;97.46;102649.63;4861302;29;20193;-80
2021/12/19 05:25:14;;;;;;;12.52;2.88;;;;;;;6.28;97.52;102637.25;4845568;29;20178;-81
2021/12/19 05:27:44;;;;;;;12.60;2.30;;;;;;;6.28;97.32;102640.78;4861331;29;20181;-81
2021/12/19 05:30:12;;;;;;;8.50;2.60;;;;;;;6.25;97.08;102640.72;4862121;29;20801;-81
2021/12/19 05:32:39;;;;;;;14.25;2.47;;;;;;;6.28;97.27;102623.94;5022968;23;20271;-79
2021/12/19 05:35:05;;;;;;;9.95;2.08;;;;;;;6.33;96.48;102622.19;4867250;29;20609;-81
2021/12/19 05:45:42;;;;;;;12.68;2.00;;;;;;;6.36;96.41;102609.81;4829952;29;20194;-80
2021/12/19 05:48:08;;;;;;;11.50;2.13;;;;;;;6.34;96.03;102611.56;4827289;29;20196;-81
2021/12/19 05:50:33;;;;;;;16.45;2.22;;;;;;;6.39;96.25;102601.81;4797264;29;20208;-81
2021/12/19 05:52:59;;;;;;;11.80;2.35;;;;;;;6.37;95.75;102597.38;4828312;29;20175;-80
2021/12/19 05:55:24;;;;;;;10.40;2.63;;;;;;;6.32;96.23;102593.75;4828270;29;20680;-80
2021/12/19 05:57:49;;;;;;;12.15;2.42;;;;;;;6.32;96.10;102589.34;4812221;29;20210;-80
2021/12/19 06:00:18;;;;;;;10.85;2.13;;;;;;;6.32;96.37;102597.34;4827685;29;20629;-79
2021/12/19 06:02:44;;;;;;;15.85;2.30;;;;;;;6.34;96.19;102594.66;4815313;29;20856;-81
2021/12/19 06:05:10;;;;;;;11.27;2.65;;;;;;;6.33;96.24;102580.47;4829722;29;20274;-82
2021/12/19 06:07:36;;;;;;;10.07;2.30;;;;;;;6.35;96.54;102586.69;4826331;29;20188;-81
2021/12/19 06:10:03;;;;;;;11.90;2.10;;;;;;;6.39;96.01;102582.31;4826753;29;20239;-80
2021/12/19 06:12:29;;;;;;;6.15;1.73;;;;;;;6.37;95.77;102584.06;4826165;29;20661;-81
2021/12/19 06:14:54;;;;;;;13.13;2.50;;;;;;;6.38;95.95;102585.81;4826379;29;20239;-81
2021/12/19 06:17:20;;;;;;;12.52;2.45;;;;;;;6.33;96.24;102585.81;4824149;29;20195;-81
2021/12/19 06:19:45;;;;;;;14.82;2.80;;;;;;;6.42;96.24;102592.09;4826478;29;20196;-81
2021/12/19 06:22:10;;;;;;;14.88;2.58;;;;;;;6.37;95.72;102587.59;4825149;29;20251;-81
2021/12/19 06:24:36;;;;;;;11.45;2.42;;;;;;;6.36;95.84;102590.25;4810142;29;20203;-82
2021/12/19 06:27:03;;;;;;;10.85;2.10;;;;;;;6.38;95.79;102591.16;4809868;29;20233;-81
2021/12/19 06:29:29;;;;;;;11.00;1.90;;;;;;;6.45;95.51;102576.13;4809420;29;20264;-81
2021/12/19 06:31:56;;;;;;;12.20;2.28;;;;;;;6.37;95.58;102568.97;4825024;29;20184;-82
2021/12/19 06:34:21;;;;;;;13.30;2.67;;;;;;;6.36;95.22;102571.63;4824533;29;20191;-81
2021/12/19 06:36:47;;;;;;;11.85;2.20;;;;;;;6.39;95.25;102571.66;4825750;29;20276;-81
2021/12/19 06:39:12;;;;;;;8.68;1.90;;;;;;;6.34;95.59;102571.63;4823941;29;20243;-82
2021/12/19 06:41:38;;;;;;;16.63;2.45;;;;;;;6.31;95.74;102563.59;4843557;29;20187;-81
2021/12/19 06:44:05;;;;;;;10.38;2.40;;;;;;;6.37;95.08;102568.97;4827938;29;20183;-81
2021/12/19 06:46:31;;;;;;;13.05;2.20;;;;;;;6.31;95.08;102562.72;4828019;29;20189;-81
2021/12/19 06:48:56;;;;;;;8.85;2.00;;;;;;;6.29;95.46;102568.00;4844635;29;20226;-81
2021/12/19 06:51:22;;;;;;;11.30;2.50;;;;;;;6.34;95.12;102557.41;4844942;29;20186;-81
2021/12/19 06:53:48;;;;;;;13.93;2.20;;;;;;;6.33;95.29;102568.94;4828724;29;20174;-81
2021/12/19 06:58:48;;;;;;;10.15;1.90;;;;;;;6.35;95.54;102560.09;4873720;23;20604;-81
2021/12/19 07:01:14;;;;;;;12.30;2.08;;;;;;;6.31;95.70;102565.38;4854043;29;20197;-81
2021/12/19 07:03:39;;;;;;;16.15;2.38;;;;;;;6.32;95.87;102569.81;4864246;29;20178;-82
2021/12/19 07:06:05;;;;;;;10.63;1.98;;;;;;;6.32;95.70;102580.44;4863930;29;20170;-81
2021/12/19 07:08:30;;;;;;;14.43;2.45;;;;;;;6.31;95.89;102581.34;4863131;29;20329;-82
2021/12/19 07:10:56;;;;;;;12.73;2.33;;;;;;;6.32;95.65;102586.69;4864892;29;20178;-80
2021/12/19 07:13:21;;;;;;;15.20;1.98;;;;;;;6.35;95.94;102586.69;4865027;29;20178;-80
2021/12/19 07:15:48;;;;;;;13.93;2.42;;;;;;;6.36;95.94;102582.25;4847758;29;20302;-80
2021/12/19 07:18:14;;;;;;;16.80;2.25;;;;;;;6.37;95.93;102582.28;4826045;29;20203;-80
2021/12/19 07:20:42;;;;;;;9.63;2.10;;;;;;;6.44;95.53;102590.31;4845341;29;20191;-81
2021/12/19 07:23:10;;;;;;;13.40;2.88;;;;;;;6.37;96.09;102592.94;4816705;29;20827;-81
2021/12/19 07:25:36;;;;;;;13.80;2.38;;;;;;;6.39;96.78;102583.19;4831469;29;20326;-81
2021/12/19 07:28:01;;;;;;;13.15;2.20;;;;;;;6.36;96.91;102582.25;4845772;29;20202;-81
2021/12/19 07:30:26;;;;;;;14.80;2.42;;;;;;;6.36;96.73;102580.53;4846141;29;20195;-81
2021/12/19 07:32:54;;;;;;;14.10;2.70;;;;;;;6.37;97.06;102568.09;4828676;29;20345;-81
2021/12/19 07:35:21;;;;;;;14.23;2.80;;;;;;;6.39;97.40;102564.56;4813966;29;20575;-80
2021/12/19 07:37:49;;;;;;;14.77;2.30;;;;;;;6.39;97.41;102566.34;4829323;29;20185;-81
2021/12/19 07:40:16;;;;;;;14.13;2.03;;;;;;;6.37;97.19;102562.75;4827946;29;20274;-81
2021/12/19 07:42:43;;;;;;;22.08;8.82;;;;;;;6.39;97.52;102550.34;4828397;29;20179;-81
2021/12/19 07:45:10;;;;;;;14.88;3.22;;;;;;;6.38;97.14;102553.88;4844184;29;20179;-81
2021/12/19 07:47:38;;;;;;;11.82;2.20;;;;;;;6.40;97.54;102560.09;4828846;29;20198;-80
2021/12/19 07:50:09;;;;;;;17.70;3.13;;;;;;;6.44;97.22;102558.38;4835623;29;20230;-80
2021/12/19 07:52:34;;;;;;;14.15;2.80;;;;;;;6.50;97.07;102561.97;4796243;29;20667;-81
2021/12/19 07:55:03;;;;;;;11.88;2.53;;;;;;;6.50;97.22;102556.63;4826425;29;20230;-81
2021/12/19 07:57:28;;;;;;;11.98;2.20;;;;;;;6.51;97.60;102545.09;4808635;29;20239;-83
2021/12/19 07:59:54;;;;;;;11.20;2.22;;;;;;;6.50;97.08;102561.97;4809055;29;20212;-80
2021/12/19 08:02:19;;;;;;;9.52;1.85;;;;;;;6.49;97.70;102554.84;4826216;29;20665;-81
2021/12/19 08:04:44;;;;;;;11.95;2.60;;;;;;;6.51;96.88;102545.09;4809185;29;20232;-80
2021/12/19 08:07:12;;;;;;;13.35;2.08;;;;;;;6.56;96.72;102543.38;4793570;29;20187;-80
2021/12/19 08:09:58;;;;;;;9.40;2.00;;;;;;;6.59;96.82;102523.84;4809181;29;20207;-81
2021/12/19 08:12:24;;;;;;;8.50;1.98;;;;;;;6.65;95.92;102531.88;4808960;29;20316;-81
2021/12/19 08:14:50;;;;;;;11.00;2.33;;;;;;;6.71;96.00;102515.03;4824806;29;20281;-81
2021/12/19 08:17:17;;;;;;;7.40;2.20;;;;;;;6.70;96.07;102519.47;4822856;29;20639;-81
2021/12/19 08:19:43;;;;;;;10.50;2.25;;;;;;;6.64;95.96;102500.78;4808380;29;20213;-81
2021/12/19 08:22:08;;;;;;;14.57;2.60;;;;;;;6.66;95.74;102506.13;4824937;29;20195;-81
2021/12/19 08:24:33;;;;;;;10.93;2.05;;;;;;;6.69;95.76;102496.38;4820681;29;20187;-81
2021/12/19 08:26:59;;;;;;;9.23;2.25;;;;;;;6.72;95.53;102491.06;4842830;29;20163;-81
2021/12/19 08:29:24;;;;;;;10.48;2.33;;;;;;;6.72;95.42;102491.06;4844841;29;20298;-81
2021/12/19 08:31:50;;;;;;;10.68;1.95;;;;;;;6.73;94.82;102498.16;4843698;29;20186;-81
2021/12/19 08:34:16;;;;;;;10.70;1.92;;;;;;;6.78;94.65;102498.22;4857378;29;20598;-80
2021/12/19 08:36:41;;;;;;;10.10;2.28;;;;;;;6.82;94.55;102494.66;4841447;29;20201;-80
2021/12/19 08:39:10;;;;;;;7.20;1.98;;;;;;;6.78;94.53;102495.53;4810933;29;20287;-81
2021/12/19 08:41:36;;;;;;;13.05;2.45;;;;;;;6.81;94.67;102493.75;4842284;29;20227;-80
2021/12/19 08:44:01;;;;;;;9.15;2.63;;;;;;;6.91;94.03;102501.78;4842231;29;20653;-81
2021/12/19 08:46:28;;;;;;;13.23;2.55;;;;;;;6.91;94.07;102500.03;4835696;29;20186;-81
2021/12/19 08:48:53;;;;;;;10.80;2.38;;;;;;;6.88;93.92;102489.34;4843952;29;20222;-81
2021/12/19 08:51:19;;;;;;;16.52;2.60;;;;;;;6.83;94.09;102477.78;4844521;29;20234;-81
2021/12/19 08:53:44;;;;;;;12.55;2.40;;;;;;;6.84;93.96;102473.34;4829082;29;20241;-81
2021/12/19 08:56:10;;;;;;;11.10;2.30;;;;;;;6.86;94.36;102479.56;4850757;29;20734;-81
2021/12/19 08:58:37;;;;;;;19.17;2.97;;;;;;;6.83;94.30;102476.91;4858817;29;20201;-81
2021/12/19 09:01:03;;;;;;;14.23;2.53;;;;;;;6.83;94.37;102476.91;4842780;29;20194;-81
2021/12/19 09:03:32;;;;;;;15.23;3.10;;;;;;;6.75;94.87;102474.19;4859950;29;20166;-80
2021/12/19 09:05:58;;;;;;;12.00;2.67;;;;;;;6.83;94.70;102475.13;4813633;29;20221;-82
2021/12/19 09:08:24;;;;;;;11.55;2.38;;;;;;;6.89;94.32;102483.16;4842573;29;20175;-81
2021/12/19 09:10:50;;;;;;;18.77;2.78;;;;;;;6.87;94.41;102484.03;4843013;29;20185;-81
2021/12/19 09:13:16;;;;;;;13.32;2.45;;;;;;;6.89;94.03;102488.47;4826596;29;20181;-82
2021/12/19 09:15:42;;;;;;;10.10;2.58;;;;;;;6.85;94.25;102483.13;4842333;29;20570;-81
2021/12/19 09:18:07;;;;;;;15.10;2.53;;;;;;;6.88;94.65;102481.34;4842930;29;20182;-81
2021/12/19 09:20:32;;;;;;;10.30;3.00;;;;;;;6.84;94.89;102478.69;4828711;29;20194;-81
2021/12/19 09:22:58;;;;;;;12.95;2.33;;;;;;;6.87;94.94;102474.25;4845932;29;20583;-81
2021/12/19 09:25:23;;;;;;;18.33;3.33;;;;;;;6.88;94.72;102489.34;4846696;29;20207;-81
2021/12/19 09:27:49;;;;;;;13.00;2.30;;;;;;;6.85;95.27;102478.69;4816194;29;20632;-81
2021/12/19 09:30:15;;;;;;;10.98;2.53;;;;;;;6.90;95.08;102478.69;4830991;29;20258;-81
2021/12/19 09:32:40;;;;;;;15.93;3.05;;;;;;;6.90;94.94;102492.91;4815988;29;20182;-81
2021/12/19 09:35:07;;;;;;;13.82;2.80;;;;;;;6.93;95.20;102498.28;4833646;29;20625;-81
2021/12/19 09:37:35;;;;;;;11.07;2.10;;;;;;;6.92;94.86;102490.25;4832267;29;20190;-81
2021/12/19 09:40:07;;;;;;;14.70;2.92;;;;;;;6.94;94.62;102481.38;4832615;29;20289;-81
2021/12/19 09:42:37;;;;;;;14.35;2.83;;;;;;;6.98;94.91;102493.84;4833165;29;20190;-81
2021/12/19 09:45:04;;;;;;;14.98;3.22;;;;;;;6.97;95.16;102486.72;4832247;29;20633;-80
2021/12/19 09:50:07;;;;;;;11.10;2.85;;;;;;;7.04;94.85;102495.66;4869989;29;20281;-80
2021/12/19 09:52:34;;;;;;;14.05;2.70;;;;;;;7.00;94.50;102491.19;4882676;29;20228;-79
2021/12/19 09:55:00;;;;;;;14.55;2.88;;;;;;;6.96;95.10;102498.25;4882672;29;20169;-80
2021/12/19 09:57:25;;;;;;;14.48;2.80;;;;;;;7.06;94.89;102499.16;4867453;29;20358;-79
2021/12/19 09:59:51;;;;;;;19.85;2.90;;;;;;;7.07;94.64;102484.09;4868592;29;20200;-79
2021/12/19 10:02:17;;;;;;;15.02;2.55;;;;;;;7.05;94.93;102488.53;4884737;29;20182;-79
2021/12/19 10:04:44;;;;;;;16.80;2.55;;;;;;;7.09;94.55;102495.66;4865655;29;20541;-80
2021/12/19 10:07:18;;;;;;;12.35;2.58;;;;;;;7.06;94.43;102483.19;4864039;29;20590;-80
2021/12/19 10:09:59;;;;;;;13.05;2.60;;;;;;;7.09;93.95;102469.00;4864786;29;20211;-79
2021/12/19 10:12:57;;;;;;;13.15;2.72;;;;;;;7.15;93.76;102487.66;4865012;29;20253;-80
2021/12/19 10:15:27;;;;;;;16.08;3.03;;;;;;;7.08;93.31;102469.88;4881361;29;20260;-81
2021/12/19 10:18:22;;;;;;;16.40;2.97;;;;;;;7.10;93.13;102466.31;4863917;29;20240;-80
2021/12/19 10:21:00;;;;;;;13.32;2.70;;;;;;;7.11;93.28;102457.44;4853324;29;20296;-80
2021/12/19 10:23:26;;;;;;;15.35;3.05;;;;;;;7.16;93.00;102452.13;4877829;29;20169;-80
2021/12/19 10:25:59;;;;;;;14.55;2.65;;;;;;;7.15;92.76;102474.31;4846715;29;20197;-80
2021/12/19 10:28:25;;;;;;;10.98;2.40;;;;;;;7.18;93.10;102453.91;4862327;29;20170;-80
2021/12/19 10:30:50;;;;;;;13.55;2.78;;;;;;;7.19;93.06;102458.38;4862128;29;20188;-81
2021/12/19 10:33:22;;;;;;;13.73;3.17;;;;;;;7.18;92.58;102451.25;4863234;29;20550;-81
2021/12/19 10:35:50;;;;;;;18.80;3.25;;;;;;;7.29;92.45;102450.38;4845954;29;20213;-81
2021/12/19 10:38:23;;;;;;;13.40;2.83;;;;;;;7.23;92.42;102453.91;4845628;29;20177;-81
2021/12/19 10:40:58;;;;;;;6.85;2.20;;;;;;;7.25;91.71;102454.81;4845333;29;20212;-80
2021/12/19 10:43:28;;;;;;;15.45;2.90;;;;;;;7.30;91.02;102453.03;4830662;29;20178;-81
2021/12/19 10:46:00;;;;;;;10.98;2.70;;;;;;;7.30;90.88;102445.03;4845726;29;20182;-81
2021/12/19 10:48:38;;;;;;;10.63;2.38;;;;;;;7.36;90.68;102449.50;4845602;29;20197;-80
2021/12/19 10:51:07;;;;;;;10.75;2.88;;;;;;;7.33;91.03;102453.03;4846844;29;20186;-80
2021/12/19 10:53:37;;;;;;;17.70;2.63;;;;;;;7.27;91.12;102453.03;4845482;29;20206;-80
2021/12/19 10:56:11;;;;;;;13.75;2.75;;;;;;;7.23;91.35;102456.56;4881028;29;20213;-81
2021/12/19 10:58:51;;;;;;;13.80;2.70;;;;;;;7.27;91.04;102453.03;4863650;29;20556;-81
2021/12/19 11:01:19;;;;;;;16.25;3.35;;;;;;;7.29;90.63;102445.03;4864074;29;20185;-80
2021/12/19 11:03:58;;;;;;;15.02;2.70;;;;;;;7.25;90.43;102436.16;4880733;29;20169;-80
2021/12/19 11:06:45;;;;;;;15.75;2.80;;;;;;;7.28;89.65;102435.25;4865111;29;20181;-80
2021/12/19 11:09:18;;;;;;;16.35;3.15;;;;;;;7.31;89.82;102422.81;4863565;29;20228;-80
2021/12/19 11:11:52;;;;;;;9.82;3.05;;;;;;;7.30;90.50;102425.47;4863699;29;20199;-80
2021/12/19 11:14:33;;;;;;;14.80;2.95;;;;;;;7.34;90.04;102424.59;4879855;29;20202;-80
2021/12/19 11:17:04;;;;;;;15.23;2.60;;;;;;;7.33;89.83;102407.72;4862698;29;20258;-80
2021/12/19 11:19:30;;;;;;;13.90;3.03;;;;;;;7.42;89.09;102415.72;4880527;29;20205;-80
2021/12/19 11:21:56;;;;;;;11.77;2.70;;;;;;;7.36;88.91;102407.72;4849698;29;20229;-79
2021/12/19 11:24:23;;;;;;;15.48;2.67;;;;;;;7.41;88.66;102403.28;4864489;29;20182;-79
2021/12/19 11:27:01;;;;;;;12.65;2.70;;;;;;;7.41;88.49;102391.72;4863979;29;20592;-80
2021/12/19 11:29:27;;;;;;;18.45;3.45;;;;;;;7.40;88.35;102392.59;4848604;29;20248;-80
2021/12/19 11:31:59;;;;;;;12.82;2.60;;;;;;;7.42;88.41;102394.38;4864508;29;20181;-79
2021/12/19 11:34:56;;;;;;;8.63;2.35;;;;;;;7.40;88.44;102387.28;4848574;29;20663;-80
2021/12/19 11:37:49;;;;;;;15.07;2.67;;;;;;;7.41;88.25;102389.94;4879805;29;20225;-79
2021/12/19 11:40:17;;;;;;;14.60;2.65;;;;;;;7.47;87.95;102398.84;4864090;29;20223;-79
2021/12/19 11:42:42;;;;;;;10.35;2.83;;;;;;;7.52;87.54;102391.72;4863874;29;20675;-79
2021/12/19 11:47:51;;;;;;;14.90;2.60;;;;;;;7.49;88.47;102375.72;4880192;29;20188;-80
2021/12/19 11:50:21;;;;;;;10.70;2.95;;;;;;;7.54;87.56;102376.59;4880127;29;20197;-79
2021/12/19 11:52:47;;;;;;;8.20;2.40;;;;;;;7.53;87.58;102351.72;4863383;29;20245;-80
2021/12/19 11:55:13;;;;;;;12.68;3.00;;;;;;;7.56;87.19;102350.81;4865041;29;20181;-80
2021/12/19 11:57:38;;;;;;;12.68;2.55;;;;;;;7.52;87.48;102357.94;4862619;29;20279;-80
2021/12/19 12:00:27;;;;;;;11.32;2.42;;;;;;;7.54;87.96;102357.94;4863272;29;20229;-80
2021/12/19 12:03:11;;;;;;;8.95;2.30;;;;;;;7.50;87.34;102349.06;4862999;29;20546;-80
2021/12/19 12:05:36;;;;;;;12.68;2.78;;;;;;;7.53;87.00;102351.72;4862570;29;20283;-80
2021/12/19 12:08:05;;;;;;;14.52;2.83;;;;;;;7.47;87.17;102359.72;4878923;29;20205;-80
2021/12/19 12:10:55;;;;;;;14.85;2.95;;;;;;;7.48;87.00;102347.25;4879597;29;20200;-80
2021/12/19 12:13:25;;;;;;;10.27;2.50;;;;;;;7.59;86.41;102338.38;4879581;29;20236;-80
2021/12/19 12:15:58;;;;;;;9.68;2.63;;;;;;;7.49;86.59;102338.38;4862852;29;20211;-80
2021/12/19 12:18:38;;;;;;;8.02;2.28;;;;;;;7.49;87.13;102335.72;4862411;29;20217;-80
2021/12/19 12:24:04;;;;;;;11.07;2.85;;;;;;;7.39;86.67;102332.16;4881350;29;20206;-80
2021/12/19 12:26:46;;;;;;;11.68;2.40;;;;;;;7.28;86.31;102323.28;4862724;29;20172;-80
2021/12/19 12:29:12;;;;;;;14.68;2.65;;;;;;;7.20;86.70;102329.50;4878918;29;20201;-81
2021/12/19 12:31:38;;;;;;;11.95;2.90;;;;;;;7.16;87.09;102381.03;4863857;29;20586;-81
2021/12/19 12:34:08;;;;;;;10.13;2.30;;;;;;;7.13;86.72;102342.84;4864085;29;20667;-81
2021/12/19 12:36:34;;;;;;;12.02;2.67;;;;;;;7.23;86.40;102336.63;4879488;29;20205;-80
2021/12/19 12:39:04;;;;;;;13.57;2.65;;;;;;;7.26;86.17;102333.06;4862944;29;20613;-81
2021/12/19 12:41:40;;;;;;;9.77;2.13;;;;;;;7.23;85.48;102323.28;4850527;29;20583;-81
2021/12/19 12:44:11;;;;;;;13.30;2.78;;;;;;;7.29;85.84;102325.94;4830124;29;20171;-81
2021/12/19 12:46:38;;;;;;;10.45;2.63;;;;;;;7.09;86.17;102341.06;4854478;29;20218;-80
2021/12/19 12:49:04;;;;;;;19.85;2.90;;;;;;;7.04;86.39;102337.50;4861536;29;20273;-80
2021/12/19 12:51:36;;;;;;;12.57;2.70;;;;;;;7.02;86.01;102334.84;4861612;29;20182;-80
2021/12/19 12:54:10;;;;;;;11.57;2.22;;;;;;;6.99;85.91;102341.03;4839128;29;20206;-80